createdAt,value
2023-04-01T00:00:33.334Z,23.22
2023-04-01T00:01:33.351Z,23.22
2023-04-01T00:02:33.430Z,23.21
2023-04-01T00:03:33.682Z,23.22
2023-04-01T00:05:52.463Z,23.18
2023-04-01T00:06:52.439Z,23.19
2023-04-01T00:07:52.431Z,23.19
2023-04-01T00:08:52.424Z,23.20
2023-04-01T00:09:52.408Z,23.21
2023-04-01T00:10:52.394Z,23.20
2023-04-01T00:11:52.375Z,23.21
2023-04-01T00:12:52.362Z,23.20
2023-04-01T00:13:52.362Z,23.20
2023-04-01T00:14:52.349Z,23.21
2023-04-01T00:15:52.345Z,23.20
2023-04-01T00:16:52.358Z,23.20
2023-04-01T00:17:52.339Z,23.21
2023-04-01T00:18:52.349Z,23.21
2023-04-01T00:19:52.296Z,23.21
2023-04-01T00:20:52.252Z,23.20
2023-04-01T00:21:52.250Z,23.21
2023-04-01T00:22:52.212Z,23.20
2023-04-01T00:23:52.318Z,23.21
2023-04-01T00:24:52.185Z,23.21
2023-04-01T00:25:52.166Z,23.21
2023-04-01T00:26:52.160Z,23.20
2023-04-01T00:27:52.149Z,23.20
2023-04-01T00:28:52.228Z,23.21
2023-04-01T00:29:52.123Z,23.20
2023-04-01T00:30:52.110Z,23.20
2023-04-01T00:31:52.210Z,23.21
2023-04-01T00:32:52.105Z,23.20
2023-04-01T00:33:52.065Z,23.20
2023-04-01T00:34:52.046Z,23.20
2023-04-01T00:35:52.087Z,23.20
2023-04-01T00:36:52.024Z,23.19
2023-04-01T00:37:52.048Z,23.20
2023-04-01T00:38:51.981Z,23.20
2023-04-01T00:39:51.977Z,23.20
2023-04-01T00:40:51.955Z,23.20
2023-04-01T00:41:51.939Z,23.20
2023-04-01T00:42:51.923Z,23.20
2023-04-01T00:43:51.946Z,23.19
2023-04-01T00:44:51.908Z,23.19
2023-04-01T00:45:51.883Z,23.19
2023-04-01T00:46:51.878Z,23.19
2023-04-01T00:47:51.914Z,23.19
2023-04-01T00:48:51.857Z,23.19
2023-04-01T00:49:51.831Z,23.18
2023-04-01T00:50:51.820Z,23.19
2023-04-01T00:51:51.795Z,23.19
2023-04-01T00:52:51.771Z,23.20
2023-04-01T00:53:51.761Z,23.19
2023-04-01T00:54:51.743Z,23.19
2023-04-01T00:55:51.733Z,23.19
2023-04-01T00:56:51.761Z,23.19
2023-04-01T00:57:51.701Z,23.18
2023-04-01T00:58:51.681Z,23.19
2023-04-01T00:59:51.669Z,23.19
2023-04-01T01:00:51.695Z,23.19
2023-04-01T01:01:51.680Z,23.19
2023-04-01T01:02:51.666Z,23.19
2023-04-01T01:03:51.626Z,23.20
2023-04-01T01:04:51.604Z,23.19
2023-04-01T01:05:51.888Z,23.20
2023-04-01T01:06:51.612Z,23.19
2023-04-01T01:07:51.592Z,23.19
2023-04-01T01:08:51.572Z,23.19
2023-04-01T01:09:51.571Z,23.19
2023-04-01T01:10:51.550Z,23.19
2023-04-01T01:11:51.567Z,23.19
2023-04-01T01:12:51.546Z,23.18
2023-04-01T01:13:51.530Z,23.18
2023-04-01T01:14:51.525Z,23.18
2023-04-01T01:15:51.522Z,23.18
2023-04-01T01:16:51.553Z,23.18
2023-04-01T01:17:51.561Z,23.17
2023-04-01T01:18:51.492Z,23.18
2023-04-01T01:19:51.494Z,23.17
2023-04-01T01:20:51.485Z,23.18
2023-04-01T01:21:51.485Z,23.18
2023-04-01T01:22:51.481Z,23.17
2023-04-01T01:23:51.480Z,23.17
2023-04-01T01:24:51.499Z,23.16
2023-04-01T01:25:51.500Z,23.18
2023-04-01T01:26:51.480Z,23.17
2023-04-01T01:27:51.477Z,23.17
2023-04-01T01:28:51.473Z,23.17
2023-04-01T01:29:51.474Z,23.17
2023-04-01T01:30:51.544Z,23.17
2023-04-01T01:31:51.459Z,23.17
2023-04-01T01:32:51.477Z,23.17
2023-04-01T01:33:51.451Z,23.17
2023-04-01T01:34:51.430Z,23.17
2023-04-01T01:35:51.462Z,23.16
2023-04-01T01:36:51.419Z,23.17
2023-04-01T01:37:51.426Z,23.17
2023-04-01T01:38:51.432Z,23.17
2023-04-01T01:39:51.441Z,23.17
2023-04-01T01:40:51.422Z,23.17
2023-04-01T01:41:51.425Z,23.16
2023-04-01T01:42:51.424Z,23.16
2023-04-01T01:43:51.438Z,23.16
2023-04-01T01:44:51.428Z,23.16
2023-04-01T01:45:51.487Z,23.15
2023-04-01T01:46:51.398Z,23.15
2023-04-01T01:47:51.436Z,23.15
2023-04-01T01:48:51.402Z,23.15
2023-04-01T01:49:51.460Z,23.14
2023-04-01T01:50:51.390Z,23.14
2023-04-01T01:51:51.395Z,23.14
2023-04-01T01:52:51.386Z,23.14
2023-04-01T01:53:51.410Z,23.14
2023-04-01T01:54:51.414Z,23.14
2023-04-01T01:55:51.378Z,23.13
2023-04-01T01:56:51.392Z,23.13
2023-04-01T01:57:51.368Z,23.14
2023-04-01T01:58:51.357Z,23.13
2023-04-01T01:59:51.374Z,23.12
2023-04-01T02:00:51.385Z,23.13
2023-04-01T02:01:51.415Z,23.13
2023-04-01T02:02:51.382Z,23.12
2023-04-01T02:03:51.353Z,23.13
2023-04-01T02:04:51.459Z,23.13
2023-04-01T02:05:51.341Z,23.12
2023-04-01T02:06:51.334Z,23.12
2023-04-01T02:07:51.325Z,23.12
2023-04-01T02:08:51.318Z,23.12
2023-04-01T02:09:51.329Z,23.12
2023-04-01T02:10:51.313Z,23.11
2023-04-01T02:11:51.308Z,23.12
2023-04-01T02:12:51.301Z,23.12
2023-04-01T02:13:51.332Z,23.12
2023-04-01T02:14:51.290Z,23.12
2023-04-01T02:15:51.327Z,23.12
2023-04-01T02:16:51.308Z,23.11
2023-04-01T02:17:51.308Z,23.12
2023-04-01T02:18:51.276Z,23.12
2023-04-01T02:19:51.281Z,23.11
2023-04-01T02:20:51.275Z,23.12
2023-04-01T02:21:51.274Z,23.11
2023-04-01T02:22:51.261Z,23.12
2023-04-01T02:23:51.258Z,23.11
2023-04-01T02:24:51.257Z,23.12
2023-04-01T02:25:51.254Z,23.12
2023-04-01T02:26:51.237Z,23.11
2023-04-01T02:27:51.240Z,23.11
2023-04-01T02:28:51.223Z,23.11
2023-04-01T02:29:51.212Z,23.11
2023-04-01T02:30:51.260Z,23.11
2023-04-01T02:31:51.357Z,23.11
2023-04-01T02:32:51.221Z,23.10
2023-04-01T02:33:51.218Z,23.10
2023-04-01T02:34:51.210Z,23.10
2023-04-01T02:35:51.227Z,23.10
2023-04-01T02:36:51.198Z,23.10
2023-04-01T02:37:51.206Z,23.11
2023-04-01T02:38:51.180Z,23.10
2023-04-01T02:39:51.178Z,23.10
2023-04-01T02:40:51.191Z,23.10
2023-04-01T02:41:51.164Z,23.10
2023-04-01T02:42:51.171Z,23.10
2023-04-01T02:43:51.156Z,23.10
2023-04-01T02:44:51.150Z,23.10
2023-04-01T02:45:51.157Z,23.09
2023-04-01T02:46:51.190Z,23.10
2023-04-01T02:47:51.196Z,23.10
2023-04-01T02:48:51.128Z,23.10
2023-04-01T02:49:51.152Z,23.10
2023-04-01T02:50:51.124Z,23.09
2023-04-01T02:51:51.129Z,23.09
2023-04-01T02:52:51.131Z,23.10
2023-04-01T02:53:51.123Z,23.09
2023-04-01T02:54:51.109Z,23.09
2023-04-01T02:55:51.106Z,23.11
2023-04-01T02:56:51.159Z,23.13
2023-04-01T02:57:51.076Z,23.16
2023-04-01T02:58:51.067Z,23.15
2023-04-01T02:59:51.068Z,23.10
2023-04-01T03:00:51.118Z,23.02
2023-04-01T03:01:51.074Z,22.93
2023-04-01T03:02:51.171Z,22.81
2023-04-01T03:03:51.129Z,22.71
2023-04-01T03:04:51.149Z,22.64
2023-04-01T03:05:51.186Z,22.61
2023-04-01T03:06:51.231Z,22.55
2023-04-01T03:07:51.261Z,22.51
2023-04-01T03:08:51.298Z,22.48
2023-04-01T03:09:51.335Z,22.43
2023-04-01T03:10:51.399Z,22.40
2023-04-01T03:11:51.434Z,22.36
2023-04-01T03:12:51.509Z,22.30
2023-04-01T03:13:51.554Z,22.28
2023-04-01T03:14:51.631Z,22.28
2023-04-01T03:15:51.688Z,22.27
2023-04-01T03:16:51.787Z,22.23
2023-04-01T03:17:51.840Z,22.22
2023-04-01T03:18:51.873Z,22.16
2023-04-01T03:19:51.925Z,22.14
2023-04-01T03:20:51.995Z,22.10
2023-04-01T03:21:52.051Z,22.08
2023-04-01T03:22:52.121Z,22.09
2023-04-01T03:23:52.179Z,22.08
2023-04-01T03:24:52.252Z,22.03
2023-04-01T03:25:52.340Z,22.01
2023-04-01T03:26:52.382Z,22.01
2023-04-01T03:27:52.414Z,22.00
2023-04-01T03:28:52.438Z,21.96
2023-04-01T03:29:52.512Z,21.96
2023-04-01T03:30:52.522Z,21.96
2023-04-01T03:31:52.537Z,21.97
2023-04-01T03:32:52.618Z,21.96
2023-04-01T03:33:52.564Z,21.96
2023-04-01T03:34:52.610Z,21.95
2023-04-01T03:35:52.644Z,21.90
2023-04-01T03:36:52.688Z,21.88
2023-04-01T03:37:52.732Z,21.85
2023-04-01T03:38:52.789Z,21.85
2023-04-01T03:39:52.782Z,21.85
2023-04-01T03:40:52.847Z,21.84
2023-04-01T03:41:52.876Z,21.84
2023-04-01T03:42:52.930Z,21.85
2023-04-01T03:43:52.890Z,21.84
2023-04-01T03:44:52.884Z,21.82
2023-04-01T03:45:52.919Z,21.81
2023-04-01T03:46:52.891Z,21.81
2023-04-01T03:47:52.974Z,21.80
2023-04-01T03:48:52.993Z,21.77
2023-04-01T03:49:52.995Z,21.77
2023-04-01T03:50:53.023Z,21.77
2023-04-01T03:51:53.011Z,21.78
2023-04-01T03:52:53.016Z,21.76
2023-04-01T03:53:53.014Z,21.74
2023-04-01T03:54:53.030Z,21.74
2023-04-01T03:55:53.026Z,21.72
2023-04-01T03:56:53.061Z,21.70
2023-04-01T03:57:53.048Z,21.70
2023-04-01T03:58:53.050Z,21.70
2023-04-01T03:59:53.054Z,21.68
2023-04-01T04:00:53.073Z,21.67
2023-04-01T04:01:53.070Z,21.67
2023-04-01T04:02:53.114Z,21.66
2023-04-01T04:03:53.150Z,21.66
2023-04-01T04:04:53.094Z,21.67
2023-04-01T04:05:53.096Z,21.65
2023-04-01T04:06:53.100Z,21.61
2023-04-01T04:07:53.098Z,21.61
2023-04-01T04:08:53.103Z,21.63
2023-04-01T04:09:53.098Z,21.65
2023-04-01T04:10:53.105Z,21.62
2023-04-01T04:11:53.116Z,21.62
2023-04-01T04:12:53.109Z,21.61
2023-04-01T04:13:53.111Z,21.60
2023-04-01T04:14:53.114Z,21.59
2023-04-01T04:15:53.149Z,21.60
2023-04-01T04:16:53.118Z,21.59
2023-04-01T04:17:53.293Z,21.60
2023-04-01T04:18:53.125Z,21.57
2023-04-01T04:19:53.148Z,21.58
2023-04-01T04:20:53.152Z,21.58
2023-04-01T04:21:53.163Z,21.58
2023-04-01T04:22:53.157Z,21.59
2023-04-01T04:23:53.165Z,21.59
2023-04-01T04:24:53.177Z,21.59
2023-04-01T04:25:53.168Z,21.59
2023-04-01T04:26:53.195Z,21.60
2023-04-01T04:27:53.174Z,21.60
2023-04-01T04:28:53.205Z,21.60
2023-04-01T04:29:53.176Z,21.60
2023-04-01T04:30:53.190Z,21.59
2023-04-01T04:31:53.207Z,21.58
2023-04-01T04:32:53.239Z,21.58
2023-04-01T04:33:53.216Z,21.59
2023-04-01T04:34:53.207Z,21.58
2023-04-01T04:35:53.294Z,21.56
2023-04-01T04:36:53.222Z,21.56
2023-04-01T04:37:53.221Z,21.55
2023-04-01T04:38:53.227Z,21.54
2023-04-01T04:39:53.240Z,21.53
2023-04-01T04:40:53.254Z,21.52
2023-04-01T04:41:53.255Z,21.52
2023-04-01T04:42:53.256Z,21.52
2023-04-01T04:43:53.266Z,21.50
2023-04-01T04:44:53.263Z,21.49
2023-04-01T04:45:53.272Z,21.49
2023-04-01T04:46:53.373Z,21.49
2023-04-01T04:47:53.319Z,21.49
2023-04-01T04:48:53.311Z,21.49
2023-04-01T04:49:53.301Z,21.49
2023-04-01T04:50:53.305Z,21.50
2023-04-01T04:51:53.316Z,21.50
2023-04-01T04:52:53.320Z,21.48
2023-04-01T04:53:53.423Z,21.49
2023-04-01T04:54:53.332Z,21.49
2023-04-01T04:55:53.322Z,21.48
2023-04-01T04:56:53.483Z,21.48
2023-04-01T04:57:53.347Z,21.46
2023-04-01T04:58:53.352Z,21.45
2023-04-01T04:59:53.353Z,21.45
2023-04-01T05:00:53.378Z,21.46
2023-04-01T05:01:53.405Z,21.45
2023-04-01T05:02:53.442Z,21.45
2023-04-01T05:03:53.334Z,21.44
2023-04-01T05:04:53.349Z,21.43
2023-04-01T05:05:53.343Z,21.43
2023-04-01T05:06:53.374Z,21.42
2023-04-01T05:07:53.381Z,21.40
2023-04-01T05:08:53.369Z,21.39
2023-04-01T05:09:53.380Z,21.39
2023-04-01T05:10:53.369Z,21.38
2023-04-01T05:11:53.375Z,21.40
2023-04-01T05:12:53.378Z,21.40
2023-04-01T05:13:53.374Z,21.39
2023-04-01T05:14:53.382Z,21.40
2023-04-01T05:15:53.393Z,21.41
2023-04-01T05:16:53.462Z,21.42
2023-04-01T05:17:53.464Z,21.40
2023-04-01T05:18:53.418Z,21.37
2023-04-01T05:19:53.439Z,21.36
2023-04-01T05:20:53.455Z,21.38
2023-04-01T05:21:53.462Z,21.38
2023-04-01T05:22:53.481Z,21.39
2023-04-01T05:23:53.519Z,21.40
2023-04-01T05:24:53.501Z,21.39
2023-04-01T05:25:53.517Z,21.38
2023-04-01T05:26:55.231Z,21.37
2023-04-01T05:27:53.532Z,21.37
2023-04-01T05:28:53.547Z,21.37
2023-04-01T05:29:53.543Z,21.37
2023-04-01T05:30:53.579Z,21.38
2023-04-01T05:31:53.563Z,21.39
2023-04-01T05:32:53.609Z,21.38
2023-04-01T05:33:53.569Z,21.37
2023-04-01T05:34:53.585Z,21.38
2023-04-01T05:35:53.605Z,21.38
2023-04-01T05:36:53.588Z,21.37
2023-04-01T05:37:53.607Z,21.35
2023-04-01T05:38:53.615Z,21.36
2023-04-01T05:39:53.638Z,21.36
2023-04-01T05:40:53.646Z,21.36
2023-04-01T05:41:53.642Z,21.36
2023-04-01T05:42:53.675Z,21.36
2023-04-01T05:43:53.698Z,21.36
2023-04-01T05:44:53.705Z,21.33
2023-04-01T05:45:53.733Z,21.34
2023-04-01T05:46:53.745Z,21.35
2023-04-01T05:47:53.748Z,21.36
2023-04-01T05:48:53.749Z,21.35
2023-04-01T05:49:53.743Z,21.34
2023-04-01T05:50:53.765Z,21.33
2023-04-01T05:51:53.780Z,21.32
2023-04-01T05:52:53.792Z,21.32
2023-04-01T05:53:53.798Z,21.31
2023-04-01T05:54:53.830Z,21.32
2023-04-01T05:55:53.820Z,21.29
2023-04-01T05:56:53.864Z,21.30
2023-04-01T05:57:53.849Z,21.31
2023-04-01T05:58:53.854Z,21.30
2023-04-01T05:59:53.868Z,21.31
2023-04-01T06:01:08.027Z,21.32
2023-04-01T06:01:54.888Z,21.30
2023-04-01T06:02:53.969Z,21.31
2023-04-01T06:03:54.246Z,21.30
2023-04-01T06:04:53.975Z,21.30
2023-04-01T06:05:53.945Z,21.29
2023-04-01T06:06:53.955Z,21.29
2023-04-01T06:07:53.978Z,21.31
2023-04-01T06:08:53.996Z,21.31
2023-04-01T06:09:53.996Z,21.31
2023-04-01T06:10:54.020Z,21.32
2023-04-01T06:11:54.036Z,21.31
2023-04-01T06:12:54.053Z,21.29
2023-04-01T06:13:54.064Z,21.29
2023-04-01T06:14:54.075Z,21.30
2023-04-01T06:15:54.119Z,21.32
2023-04-01T06:16:54.096Z,21.31
2023-04-01T06:17:54.149Z,21.30
2023-04-01T06:18:54.112Z,21.30
2023-04-01T06:19:54.115Z,21.31
2023-04-01T06:20:54.140Z,21.33
2023-04-01T06:21:54.143Z,21.32
2023-04-01T06:22:54.182Z,21.32
2023-04-01T06:23:54.182Z,21.33
2023-04-01T06:24:54.186Z,21.34
2023-04-01T06:25:54.247Z,21.36
2023-04-01T06:26:54.212Z,21.30
2023-04-01T06:27:54.228Z,21.29
2023-04-01T06:28:54.242Z,21.31
2023-04-01T06:29:54.242Z,21.32
2023-04-01T06:30:54.251Z,21.30
2023-04-01T06:31:54.312Z,21.29
2023-04-01T06:32:54.408Z,21.29
2023-04-01T06:33:54.266Z,21.29
2023-04-01T06:34:54.278Z,21.30
2023-04-01T06:35:54.324Z,21.30
2023-04-01T06:36:54.316Z,21.30
2023-04-01T06:37:54.296Z,21.29
2023-04-01T06:38:54.326Z,21.29
2023-04-01T06:39:54.298Z,21.29
2023-04-01T06:40:54.308Z,21.29
2023-04-01T06:41:54.308Z,21.30
2023-04-01T06:42:54.322Z,21.31
2023-04-01T06:43:54.324Z,21.32
2023-04-01T06:44:54.332Z,21.32
2023-04-01T06:45:54.375Z,21.32
2023-04-01T06:46:54.350Z,21.32
2023-04-01T06:47:54.382Z,21.32
2023-04-01T06:48:54.361Z,21.31
2023-04-01T06:49:54.361Z,21.34
2023-04-01T06:50:54.707Z,21.34
2023-04-01T06:51:54.377Z,21.33
2023-04-01T06:52:54.390Z,21.35
2023-04-01T06:53:54.403Z,21.36
2023-04-01T06:54:54.405Z,21.36
2023-04-01T06:55:54.416Z,21.36
2023-04-01T06:56:54.468Z,21.37
2023-04-01T06:57:54.420Z,21.37
2023-04-01T06:58:54.437Z,21.39
2023-04-01T06:59:54.426Z,21.40
2023-04-01T07:00:54.443Z,21.41
2023-04-01T07:01:54.438Z,21.43
2023-04-01T07:02:54.705Z,21.43
2023-04-01T07:03:54.468Z,21.43
2023-04-01T07:04:54.464Z,21.43
2023-04-01T07:05:54.457Z,21.41
2023-04-01T07:06:54.484Z,21.38
2023-04-01T07:07:54.468Z,21.40
2023-04-01T07:08:54.471Z,21.41
2023-04-01T07:09:54.468Z,21.42
2023-04-01T07:10:54.472Z,21.43
2023-04-01T07:11:54.472Z,21.45
2023-04-01T07:12:54.491Z,21.45
2023-04-01T07:13:54.492Z,21.47
2023-04-01T07:14:54.494Z,21.46
2023-04-01T07:15:56.047Z,21.46
2023-04-01T07:16:54.553Z,21.48
2023-04-01T07:17:54.546Z,21.49
2023-04-01T07:18:54.517Z,21.49
2023-04-01T07:19:54.517Z,21.52
2023-04-01T07:20:54.519Z,21.53
2023-04-01T07:21:54.533Z,21.54
2023-04-01T07:22:54.548Z,21.57
2023-04-01T07:23:54.563Z,21.57
2023-04-01T07:24:54.840Z,21.57
2023-04-01T07:25:54.611Z,21.59
2023-04-01T07:26:54.628Z,21.61
2023-04-01T07:27:54.645Z,21.62
2023-04-01T07:28:54.667Z,21.62
2023-04-01T07:29:54.675Z,21.63
2023-04-01T07:30:54.734Z,21.66
2023-04-01T07:31:54.706Z,21.66
2023-04-01T07:32:54.724Z,21.65
2023-04-01T07:33:54.726Z,21.62
2023-04-01T07:34:54.730Z,21.61
2023-04-01T07:35:54.782Z,21.61
2023-04-01T07:36:54.768Z,21.61
2023-04-01T07:37:54.779Z,21.60
2023-04-01T07:38:54.826Z,21.61
2023-04-01T07:39:54.813Z,21.59
2023-04-01T07:40:54.808Z,21.61
2023-04-01T07:41:54.814Z,21.62
2023-04-01T07:42:54.829Z,21.63
2023-04-01T07:43:54.857Z,21.65
2023-04-01T07:44:54.852Z,21.67
2023-04-01T07:45:54.894Z,21.67
2023-04-01T07:46:54.869Z,21.68
2023-04-01T07:47:54.985Z,21.71
2023-04-01T07:48:54.912Z,21.71
2023-04-01T07:49:54.926Z,21.70
2023-04-01T07:50:54.930Z,21.70
2023-04-01T07:51:54.964Z,21.72
2023-04-01T07:52:54.970Z,21.71
2023-04-01T07:53:54.975Z,21.70
2023-04-01T07:54:54.977Z,21.72
2023-04-01T07:55:54.983Z,21.74
2023-04-01T07:56:55.060Z,21.75
2023-04-01T07:57:55.076Z,21.76
2023-04-01T07:58:55.160Z,21.77
2023-04-01T07:59:55.166Z,21.75
2023-04-01T08:00:55.193Z,21.73
2023-04-01T08:01:55.233Z,21.74
2023-04-01T08:02:55.342Z,21.78
2023-04-01T08:03:55.510Z,21.81
2023-04-01T08:04:55.452Z,21.82
2023-04-01T08:05:55.408Z,21.84
2023-04-01T08:06:55.446Z,21.85
2023-04-01T08:07:55.522Z,21.87
2023-04-01T08:08:55.518Z,21.87
2023-04-01T08:09:55.524Z,21.86
2023-04-01T08:10:55.531Z,21.86
2023-04-01T08:11:55.528Z,21.89
2023-04-01T08:12:55.527Z,21.92
2023-04-01T08:13:55.548Z,21.97
2023-04-01T08:14:55.545Z,21.98
2023-04-01T08:15:55.577Z,21.99
2023-04-01T08:16:55.545Z,22.01
2023-04-01T08:17:55.613Z,22.00
2023-04-01T08:18:55.595Z,22.01
2023-04-01T08:19:55.655Z,22.02
2023-04-01T08:20:55.723Z,22.03
2023-04-01T08:21:55.794Z,22.03
2023-04-01T08:22:55.863Z,22.02
2023-04-01T08:23:55.936Z,22.03
2023-04-01T08:24:56.001Z,22.01
2023-04-01T08:25:56.073Z,22.01
2023-04-01T08:26:56.145Z,22.02
2023-04-01T08:27:56.179Z,22.02
2023-04-01T08:28:56.261Z,22.00
2023-04-01T08:29:56.306Z,22.01
2023-04-01T08:30:56.371Z,22.04
2023-04-01T08:31:56.481Z,22.08
2023-04-01T08:32:56.522Z,22.08
2023-04-01T08:33:56.562Z,22.08
2023-04-01T08:34:56.651Z,22.08
2023-04-01T08:35:56.697Z,22.07
2023-04-01T08:36:56.722Z,22.06
2023-04-01T08:37:56.789Z,22.05
2023-04-01T08:38:56.859Z,22.04
2023-04-01T08:39:56.919Z,22.04
2023-04-01T08:40:56.987Z,22.08
2023-04-01T08:41:57.068Z,22.09
2023-04-01T08:42:57.122Z,22.08
2023-04-01T08:43:57.199Z,22.08
2023-04-01T08:44:57.266Z,22.08
2023-04-01T08:45:57.366Z,22.13
2023-04-01T08:46:57.399Z,22.15
2023-04-01T08:47:57.519Z,22.13
2023-04-01T08:48:57.528Z,22.16
2023-04-01T08:49:57.612Z,22.15
2023-04-01T08:50:57.674Z,22.16
2023-04-01T08:51:57.746Z,22.17
2023-04-01T08:52:57.808Z,22.17
2023-04-01T08:53:57.877Z,22.19
2023-04-01T08:54:57.947Z,22.20
2023-04-01T08:55:58.020Z,22.20
2023-04-01T08:56:58.105Z,22.25
2023-04-01T08:57:58.137Z,22.29
2023-04-01T08:58:58.200Z,22.33
2023-04-01T08:59:58.248Z,22.35
2023-04-01T09:00:58.286Z,22.39
2023-04-01T09:01:58.396Z,22.42
2023-04-01T09:02:58.500Z,22.44
2023-04-01T09:03:58.464Z,22.48
2023-04-01T09:04:58.470Z,22.51
2023-04-01T09:05:58.515Z,22.54
2023-04-01T09:06:58.541Z,22.58
2023-04-01T09:07:58.571Z,22.64
2023-04-01T09:08:58.577Z,22.68
2023-04-01T09:09:58.611Z,22.71
2023-04-01T09:10:58.627Z,22.73
2023-04-01T09:11:58.670Z,22.75
2023-04-01T09:12:58.685Z,22.80
2023-04-01T09:13:58.709Z,22.83
2023-04-01T09:14:58.741Z,22.85
2023-04-01T09:15:58.785Z,22.86
2023-04-01T09:16:58.760Z,22.88
2023-04-01T09:17:58.839Z,22.89
2023-04-01T09:18:58.801Z,22.93
2023-04-01T09:19:58.822Z,22.94
2023-04-01T09:20:58.837Z,22.97
2023-04-01T09:21:58.866Z,23.00
2023-04-01T09:22:58.869Z,23.02
2023-04-01T09:23:58.869Z,23.06
2023-04-01T09:24:58.871Z,23.08
2023-04-01T09:25:58.880Z,23.10
2023-04-01T09:26:59.681Z,23.13
2023-04-01T09:27:58.898Z,23.14
2023-04-01T09:28:58.906Z,23.15
2023-04-01T09:29:58.915Z,23.16
2023-04-01T09:30:58.952Z,23.17
2023-04-01T09:31:58.914Z,23.18
2023-04-01T09:32:58.989Z,23.19
2023-04-01T09:33:58.921Z,23.20
2023-04-01T09:34:58.925Z,23.21
2023-04-01T09:35:58.974Z,23.22
2023-04-01T09:36:58.928Z,23.24
2023-04-01T09:37:58.937Z,23.26
2023-04-01T09:38:58.938Z,23.26
2023-04-01T09:39:58.930Z,23.27
2023-04-01T09:40:58.933Z,23.28
2023-04-01T09:41:58.939Z,23.29
2023-04-01T09:42:58.936Z,23.28
2023-04-01T09:43:58.926Z,23.29
2023-04-01T09:44:58.919Z,23.29
2023-04-01T09:45:58.950Z,23.30
2023-04-01T09:46:58.911Z,23.31
2023-04-01T09:47:59.004Z,23.30
2023-04-01T09:48:58.913Z,23.32
2023-04-01T09:49:58.899Z,23.33
2023-04-01T09:50:58.915Z,23.34
2023-04-01T09:51:58.892Z,23.34
2023-04-01T09:52:58.853Z,23.37
2023-04-01T09:53:58.834Z,23.37
2023-04-01T09:54:58.820Z,23.38
2023-04-01T09:55:58.797Z,23.40
2023-04-01T09:56:58.833Z,23.43
2023-04-01T09:57:58.754Z,23.43
2023-04-01T09:58:58.736Z,23.45
2023-04-01T09:59:58.729Z,23.45
2023-04-01T10:00:58.705Z,23.46
2023-04-01T10:01:58.712Z,23.47
2023-04-01T10:02:58.706Z,23.48
2023-04-01T10:03:58.662Z,23.51
2023-04-01T10:04:58.643Z,23.53
2023-04-01T10:05:58.695Z,23.53
2023-04-01T10:06:58.601Z,23.53
2023-04-01T10:07:58.599Z,23.55
2023-04-01T10:08:58.567Z,23.56
2023-04-01T10:09:58.572Z,23.57
2023-04-01T10:10:58.538Z,23.58
2023-04-01T10:11:58.515Z,23.59
2023-04-01T10:12:58.535Z,23.60
2023-04-01T10:13:58.499Z,23.63
2023-04-01T10:14:58.462Z,23.62
2023-04-01T10:15:58.475Z,23.63
2023-04-01T10:16:58.410Z,23.62
2023-04-01T10:17:58.464Z,23.61
2023-04-01T10:18:58.403Z,23.61
2023-04-01T10:19:58.368Z,23.60
2023-04-01T10:20:58.344Z,23.62
2023-04-01T10:21:58.335Z,23.62
2023-04-01T10:22:58.315Z,23.63
2023-04-01T10:23:58.304Z,23.65
2023-04-01T10:24:58.294Z,23.67
2023-04-01T10:25:58.274Z,23.68
2023-04-01T10:26:58.272Z,23.70
2023-04-01T10:27:58.260Z,23.71
2023-04-01T10:28:58.246Z,23.72
2023-04-01T10:29:58.281Z,23.72
2023-04-01T10:30:58.299Z,23.72
2023-04-01T10:31:58.328Z,23.74
2023-04-01T10:32:58.328Z,23.75
2023-04-01T10:33:58.231Z,23.76
2023-04-01T10:34:58.217Z,23.76
2023-04-01T10:35:58.228Z,23.76
2023-04-01T10:36:58.186Z,23.76
2023-04-01T10:37:58.164Z,23.76
2023-04-01T10:38:58.140Z,23.77
2023-04-01T10:39:58.124Z,23.80
2023-04-01T10:40:58.109Z,23.82
2023-04-01T10:41:58.088Z,23.84
2023-04-01T10:42:58.075Z,23.86
2023-04-01T10:43:58.055Z,23.86
2023-04-01T10:44:58.045Z,23.88
2023-04-01T10:45:58.044Z,23.90
2023-04-01T10:46:58.001Z,23.91
2023-04-01T10:47:58.060Z,23.91
2023-04-01T10:48:58.049Z,23.91
2023-04-01T10:49:58.126Z,23.91
2023-04-01T10:50:58.131Z,23.92
2023-04-01T10:51:58.174Z,23.94
2023-04-01T10:52:58.209Z,23.95
2023-04-01T10:53:58.262Z,23.97
2023-04-01T10:54:58.309Z,23.98
2023-04-01T10:55:58.332Z,23.99
2023-04-01T10:56:58.369Z,24.01
2023-04-01T10:57:58.280Z,24.03
2023-04-01T10:58:58.244Z,24.04
2023-04-01T10:59:58.244Z,24.05
2023-04-01T11:00:58.235Z,24.06
2023-04-01T11:02:10.006Z,24.08
2023-04-01T11:02:59.244Z,24.09
2023-04-01T11:03:58.265Z,24.11
2023-04-01T11:04:58.119Z,24.12
2023-04-01T11:05:58.115Z,24.11
2023-04-01T11:06:58.084Z,24.12
2023-04-01T11:08:06.081Z,24.12
2023-04-01T11:08:59.034Z,24.12
2023-04-01T11:09:58.029Z,24.13
2023-04-01T11:10:57.995Z,24.15
2023-04-01T11:11:57.963Z,24.16
2023-04-01T11:12:57.972Z,24.17
2023-04-01T11:13:57.922Z,24.17
2023-04-01T11:14:57.894Z,24.17
2023-04-01T11:15:57.900Z,24.18
2023-04-01T11:16:57.855Z,24.19
2023-04-01T11:17:57.914Z,24.20
2023-04-01T11:18:57.863Z,24.21
2023-04-01T11:19:57.938Z,24.20
2023-04-01T11:20:57.944Z,24.20
2023-04-01T11:21:57.984Z,24.21
2023-04-01T11:22:58.056Z,24.22
2023-04-01T11:24:04.872Z,24.23
2023-04-01T11:24:59.069Z,24.23
2023-04-01T11:25:58.019Z,24.25
2023-04-01T11:26:58.072Z,24.26
2023-04-01T11:27:57.973Z,24.26
2023-04-01T11:28:57.997Z,24.25
2023-04-01T11:30:00.162Z,24.26
2023-04-01T11:30:57.913Z,24.26
2023-04-01T11:31:57.871Z,24.27
2023-04-01T11:32:57.887Z,24.27
2023-04-01T11:33:57.813Z,24.27
2023-04-01T11:34:57.789Z,24.27
2023-04-01T11:35:57.774Z,24.28
2023-04-01T11:36:57.837Z,24.28
2023-04-01T11:37:57.761Z,24.29
2023-04-01T11:38:57.698Z,24.29
2023-04-01T11:39:58.252Z,24.30
2023-04-01T11:40:57.702Z,24.30
2023-04-01T11:41:57.628Z,24.31
2023-04-01T11:42:57.603Z,24.31
2023-04-01T11:43:57.569Z,24.33
2023-04-01T11:44:57.545Z,24.33
2023-04-01T11:45:57.560Z,24.33
2023-04-01T11:46:57.486Z,24.34
2023-04-01T11:47:57.511Z,24.34
2023-04-01T11:48:57.449Z,24.35
2023-04-01T11:49:57.435Z,24.34
2023-04-01T11:50:57.377Z,24.35
2023-04-01T11:51:57.349Z,24.35
2023-04-01T11:52:57.328Z,24.35
2023-04-01T11:53:57.311Z,24.36
2023-04-01T11:54:57.276Z,24.36
2023-04-01T11:55:57.245Z,24.36
2023-04-01T11:56:57.240Z,24.37
2023-04-01T11:57:57.210Z,24.37
2023-04-01T11:58:57.194Z,24.37
2023-04-01T11:59:57.164Z,24.38
2023-04-01T12:00:57.123Z,24.37
2023-04-01T12:01:57.094Z,24.37
2023-04-01T12:02:57.201Z,24.36
2023-04-01T12:03:57.207Z,24.36
2023-04-01T12:04:57.085Z,24.36
2023-04-01T12:05:57.061Z,24.36
2023-04-01T12:06:57.029Z,24.36
2023-04-01T12:07:57.070Z,24.37
2023-04-01T12:08:57.103Z,24.36
2023-04-01T12:09:57.133Z,24.36
2023-04-01T12:10:57.171Z,24.36
2023-04-01T12:11:57.192Z,24.36
2023-04-01T12:13:01.195Z,24.36
2023-04-01T12:13:57.197Z,24.36
2023-04-01T12:14:57.184Z,24.36
2023-04-01T12:15:57.180Z,24.36
2023-04-01T12:16:57.114Z,24.37
2023-04-01T12:17:57.176Z,24.37
2023-04-01T12:18:57.045Z,24.38
2023-04-01T12:19:57.039Z,24.37
2023-04-01T12:20:56.988Z,24.37
2023-04-01T12:21:56.953Z,24.37
2023-04-01T12:22:56.925Z,24.38
2023-04-01T12:23:56.892Z,24.39
2023-04-01T12:24:56.854Z,24.39
2023-04-01T12:25:56.845Z,24.38
2023-04-01T12:26:56.802Z,24.38
2023-04-01T12:27:56.769Z,24.38
2023-04-01T12:28:56.768Z,24.40
2023-04-01T12:29:56.726Z,24.39
2023-04-01T12:30:56.762Z,24.40
2023-04-01T12:31:56.841Z,24.40
2023-04-01T12:32:56.866Z,24.40
2023-04-01T12:33:56.849Z,24.41
2023-04-01T12:34:56.883Z,24.42
2023-04-01T12:35:56.984Z,24.42
2023-04-01T12:36:56.949Z,24.43
2023-04-01T12:37:56.968Z,24.45
2023-04-01T12:38:57.008Z,24.48
2023-04-01T12:39:57.030Z,24.50
2023-04-01T12:40:57.057Z,24.54
2023-04-01T12:41:57.092Z,24.57
2023-04-01T12:42:57.154Z,24.59
2023-04-01T12:43:57.154Z,24.61
2023-04-01T12:44:57.169Z,24.64
2023-04-01T12:45:57.223Z,24.65
2023-04-01T12:46:57.230Z,24.67
2023-04-01T12:47:57.259Z,24.70
2023-04-01T12:48:57.268Z,24.71
2023-04-01T12:49:57.273Z,24.73
2023-04-01T12:50:57.297Z,24.74
2023-04-01T12:51:57.349Z,24.75
2023-04-01T12:52:57.338Z,24.76
2023-04-01T12:53:57.362Z,24.79